Flight Track Log - Related Links

Times and Time Zones

All times are in EDT time to prevent confusion due to time zone crossing. See the DLA1865 flight status page for this flight to view local times or setup timezone preferences in your user account.

Time Position Orientation Groundspeed Altitude Reporting Facility
EDT Latitude Longitude Course Direction KTS MPH feet Rate Location/Type
Thu 04:11:00 PM 46.2885 9.4308 36° Northeast  Level Estimated
Thu 04:12:00 PM 46.3481 9.4955 37° Northeast  Level Estimated
Thu 04:13:00 PM 46.4076 9.5603 37° Northeast  Level Estimated
Thu 04:14:00 PM 46.4671 9.6253 37° Northeast  Level Estimated
Thu 04:15:00 PM 46.5266 9.6904 37° Northeast  Level Estimated
Thu 04:16:00 PM 46.5861 9.7557 37° Northeast  Level Estimated
Thu 04:17:00 PM 46.6455 9.8211 37° Northeast  Level Estimated
Thu 04:18:00 PM 46.7048 9.8867 37° Northeast  Level Estimated
Thu 04:19:00 PM 46.7642 9.9524 37° Northeast  Level Estimated
Thu 04:20:00 PM 46.8235 10.0183 37° Northeast  Level Estimated
Thu 04:21:00 PM 46.8827 10.0843 37° Northeast  Level Estimated
Thu 04:22:00 PM 46.9419 10.1504 37° Northeast  Level Estimated
Thu 04:23:00 PM 47.0011 10.2167 37° Northeast  Level Estimated
Thu 04:24:00 PM 47.0603 10.2832 37° Northeast  Level Estimated
Thu 04:25:00 PM 47.1194 10.3498 37° Northeast  Level Estimated
Thu 04:26:00 PM 47.1784 10.4165 38° Northeast  Level Estimated
Thu 04:27:00 PM 47.2374 10.4834 38° Northeast  Level Estimated
Thu 04:28:00 PM 47.2964 10.5504 38° Northeast  Level Estimated
Thu 04:29:00 PM 47.3554 10.6176 38° Northeast  Level Estimated
Thu 04:30:00 PM 47.4143 10.6849 38° Northeast  Level Estimated
Thu 04:31:00 PM 47.4732 10.7524 38° Northeast  Level Estimated
Thu 04:32:00 PM 47.5392 10.8283 38° Northeast  Level Estimated
Thu 04:33:00 PM 47.6051 10.9044 38° Northeast  Level Estimated
Thu 04:34:00 PM 47.6710 10.9807 38° Northeast  Level Estimated
Thu 04:35:00 PM 47.7369 11.0571 38° Northeast  Level Estimated
Thu 04:36:00 PM 47.8027 11.1338 38° Northeast  Level Estimated
Thu 04:37:00 PM 47.8684 11.2107 38° Northeast  Level Estimated
Thu 04:38:00 PM 47.9341 11.2877 38° Northeast  Level Estimated
Thu 04:39:00 PM 47.9997 11.3650 38° Northeast  Level Estimated
Thu 04:40:00 PM 48.0653 11.4424 38° Northeast  Level Estimated
Thu 04:41:00 PM 48.1309 11.5201 38° Northeast  Level Estimated
Thu 04:42:00 PM 48.1964 11.5979 38° Northeast  Level Estimated
Thu 04:43:00 PM 48.2618 11.6759 38° Northeast  Level Estimated
Thu 04:44:00 PM 48.3272 11.7542 38° Northeast  Level Estimated
Thu 04:45:00 PM 48.3538 11.7861 39° Northeast  Level Estimated
Thu 04:46:00 PM 48.3538 11.7861 318° Northwest  Level Estimated
Thu 04:47:00 PM 48.3538 11.7861 318° Northwest  Level Estimated
Thu 04:48:00 PM 48.3538 11.7861 318° Northwest  Level Estimated
Thu 04:49:00 PM 48.3538 11.7861 318° Northwest  Level Estimated
Thu 04:50:00 PM 48.3538 11.7861 318° Northwest  Level Estimated
Thu 04:51:00 PM 48.3538 11.7861 318° Northwest  Level Estimated
Thu 04:52:00 PM 48.3538 11.7861 318° Northwest  Level Estimated
Thu 04:53:00 PM 48.3538 11.7861 318° Northwest  Level Estimated
Thu 04:54:00 PM 48.3538 11.7861 318° Northwest  Level Estimated
Thu 04:55:00 PM 48.3538 11.7861 318° Northwest  Level Estimated

Login

Don't have an account? Register now (free) for customized features, flight alerts, and more!